EDW337 LGSR-LSZH
Flight info
| Callsign | EDW337 |
|---|---|
| Flight time | 2h 48m |
| Altitude | 36000 |
| Route | NETIS UL607 KEA UL52 KOR DCT DIMIS DCT RETRA DCT ELTIB DCT DEGUM DCT ERKIR DCT KPT L856 NEGRA |
| Aircraft | A320/M-SDE3FGHIRWY/LB1 |
Departure
| Time | 2026-05-08 15:30 |
|---|---|
| Airport | Santorini International Airport (LGSR) |
Arrival
| Time | 2026-05-08 18:18 |
|---|---|
| Airport | Zürich Airport (LSZH) |
| Time | Latitude | Longitude | Altitude | Speed | Heading |
|---|---|---|---|---|---|
| 2026-05-08 14:47 | 36.40269 | 25.47426 | 90 ft | 0 kts | 249° |
| 2026-05-08 15:23 | 36.40270 | 25.47429 | 92 ft | 3 kts | 249° |
| 2026-05-08 15:23 | 36.40278 | 25.47454 | 91 ft | 4 kts | 260° |
| 2026-05-08 15:23 | 36.40272 | 25.47477 | 89 ft | 4 kts | 328° |
| 2026-05-08 15:23 | 36.40254 | 25.47488 | 90 ft | 0 kts | 339° |
| 2026-05-08 15:24 | 36.40276 | 25.47478 | 89 ft | 2 kts | 339° |
| 2026-05-08 15:24 | 36.40277 | 25.47478 | 89 ft | 0 kts | 339° |
| 2026-05-08 15:26 | 36.40279 | 25.47477 | 89 ft | 3 kts | 339° |
| 2026-05-08 15:26 | 36.40362 | 25.47437 | 90 ft | 12 kts | 339° |
| 2026-05-08 15:26 | 36.40421 | 25.47467 | 92 ft | 11 kts | 62° |
| 2026-05-08 15:27 | 36.40486 | 25.47479 | 90 ft | 10 kts | 343° |
| 2026-05-08 15:27 | 36.40545 | 25.47449 | 91 ft | 8 kts | 340° |
| 2026-05-08 15:27 | 36.40630 | 25.47411 | 92 ft | 18 kts | 340° |
| 2026-05-08 15:27 | 36.40758 | 25.47352 | 91 ft | 21 kts | 339° |
| 2026-05-08 15:28 | 36.40829 | 25.47328 | 92 ft | 1 kts | 50° |
| 2026-05-08 15:28 | 36.40826 | 25.47345 | 91 ft | 3 kts | 96° |
| 2026-05-08 15:28 | 36.40828 | 25.47383 | 93 ft | 6 kts | 75° |
| 2026-05-08 15:28 | 36.40849 | 25.47435 | 93 ft | 8 kts | 63° |
| 2026-05-08 15:29 | 36.40826 | 25.47486 | 93 ft | 9 kts | 158° |
| 2026-05-08 15:29 | 36.40602 | 25.47592 | 91 ft | 72 kts | 159° |
| 2026-05-08 15:29 | 36.39919 | 25.47917 | 83 ft | 135 kts | 159° |
| 2026-05-08 15:29 | 36.38958 | 25.48372 | 502 ft | 145 kts | 159° |
| 2026-05-08 15:30 | 36.38076 | 25.48855 | 1268 ft | 138 kts | 153° |
| 2026-05-08 15:30 | 36.37238 | 25.49445 | 1764 ft | 141 kts | 152° |
| 2026-05-08 15:30 | 36.36335 | 25.50100 | 2035 ft | 161 kts | 152° |
| 2026-05-08 15:30 | 36.35292 | 25.50850 | 2135 ft | 190 kts | 152° |
| 2026-05-08 15:31 | 36.34102 | 25.51702 | 2503 ft | 201 kts | 153° |
| 2026-05-08 15:31 | 36.32896 | 25.52565 | 3032 ft | 205 kts | 153° |
| 2026-05-08 15:31 | 36.31618 | 25.53481 | 3458 ft | 217 kts | 153° |
| 2026-05-08 15:31 | 36.30294 | 25.54427 | 4022 ft | 223 kts | 153° |
| 2026-05-08 15:32 | 36.28931 | 25.55395 | 4592 ft | 228 kts | 154° |
| 2026-05-08 15:32 | 36.27602 | 25.56516 | 5148 ft | 238 kts | 137° |
| 2026-05-08 15:32 | 36.26729 | 25.58303 | 5682 ft | 250 kts | 106° |
| 2026-05-08 15:32 | 36.26609 | 25.60489 | 6113 ft | 265 kts | 75° |
| 2026-05-08 15:33 | 36.27414 | 25.62541 | 6588 ft | 268 kts | 42° |
| 2026-05-08 15:33 | 36.28782 | 25.64122 | 7251 ft | 270 kts | 33° |
| 2026-05-08 15:33 | 36.29786 | 25.65083 | 7763 ft | 270 kts | 29° |
| 2026-05-08 15:33 | 36.31342 | 25.66319 | 8521 ft | 269 kts | 21° |
| 2026-05-08 15:34 | 36.33015 | 25.67344 | 9304 ft | 268 kts | 14° |
| 2026-05-08 15:34 | 36.34767 | 25.68129 | 10068 ft | 267 kts | 7° |
| 2026-05-08 15:34 | 36.36562 | 25.68662 | 10772 ft | 265 kts | 1° |
| 2026-05-08 15:34 | 36.38381 | 25.68935 | 11461 ft | 263 kts | 355° |
| 2026-05-08 15:35 | 36.40213 | 25.68959 | 12143 ft | 263 kts | 349° |
| 2026-05-08 15:35 | 36.42031 | 25.68740 | 12816 ft | 262 kts | 343° |
| 2026-05-08 15:35 | 36.43817 | 25.68277 | 13505 ft | 262 kts | 338° |
| 2026-05-08 15:35 | 36.45549 | 25.67575 | 14144 ft | 262 kts | 332° |
| 2026-05-08 15:36 | 36.47208 | 25.66635 | 14749 ft | 263 kts | 326° |
| 2026-05-08 15:36 | 36.48779 | 25.65467 | 15332 ft | 263 kts | 320° |
| 2026-05-08 15:36 | 36.50241 | 25.64093 | 15935 ft | 264 kts | 315° |
| 2026-05-08 15:36 | 36.51581 | 25.62526 | 16510 ft | 265 kts | 309° |
| 2026-05-08 15:37 | 36.52778 | 25.60778 | 17104 ft | 266 kts | 303° |
| 2026-05-08 15:37 | 36.53812 | 25.58864 | 17709 ft | 267 kts | 297° |
| 2026-05-08 15:37 | 36.54671 | 25.56805 | 18319 ft | 269 kts | 292° |
| 2026-05-08 15:37 | 36.55346 | 25.54629 | 18848 ft | 271 kts | 286° |
| 2026-05-08 15:38 | 36.55820 | 25.52349 | 19355 ft | 273 kts | 281° |
| 2026-05-08 15:38 | 36.56085 | 25.49995 | 19860 ft | 276 kts | 275° |
| 2026-05-08 15:38 | 36.56135 | 25.47592 | 20362 ft | 279 kts | 269° |
| 2026-05-08 15:38 | 36.55962 | 25.45171 | 20860 ft | 283 kts | 263° |
| 2026-05-08 15:39 | 36.55552 | 25.42760 | 21353 ft | 287 kts | 257° |
| 2026-05-08 15:39 | 36.54901 | 25.40392 | 21829 ft | 292 kts | 250° |
| 2026-05-08 15:39 | 36.54008 | 25.38103 | 22331 ft | 297 kts | 244° |
| 2026-05-08 15:39 | 36.52873 | 25.35932 | 22796 ft | 303 kts | 237° |
| 2026-05-08 15:40 | 36.51529 | 25.33887 | 23256 ft | 306 kts | 237° |
| 2026-05-08 15:40 | 36.50616 | 25.31554 | 23707 ft | 300 kts | 262° |
| 2026-05-08 15:40 | 36.50670 | 25.28999 | 24077 ft | 299 kts | 287° |
| 2026-05-08 15:40 | 36.51643 | 25.26749 | 24460 ft | 304 kts | 304° |
| 2026-05-08 15:41 | 36.52933 | 25.24657 | 24873 ft | 306 kts | 304° |
| 2026-05-08 15:41 | 36.54241 | 25.22562 | 25290 ft | 307 kts | 304° |
| 2026-05-08 15:41 | 36.55551 | 25.20459 | 25711 ft | 309 kts | 304° |
| 2026-05-08 15:41 | 36.56870 | 25.18338 | 26123 ft | 310 kts | 303° |
| 2026-05-08 15:42 | 36.58189 | 25.16208 | 26532 ft | 311 kts | 303° |
| 2026-05-08 15:42 | 36.59511 | 25.14066 | 26948 ft | 313 kts | 303° |
| 2026-05-08 15:42 | 36.60834 | 25.11911 | 27345 ft | 314 kts | 303° |
| 2026-05-08 15:42 | 36.62167 | 25.09742 | 27741 ft | 316 kts | 303° |
| 2026-05-08 15:43 | 36.63500 | 25.07568 | 28129 ft | 317 kts | 303° |
| 2026-05-08 15:43 | 36.64841 | 25.05377 | 28529 ft | 319 kts | 303° |
| 2026-05-08 15:43 | 36.66187 | 25.03177 | 28899 ft | 320 kts | 303° |
| 2026-05-08 15:43 | 36.67539 | 25.00961 | 29282 ft | 322 kts | 303° |
| 2026-05-08 15:44 | 36.68900 | 24.98726 | 29560 ft | 327 kts | 303° |
| 2026-05-08 15:44 | 36.70422 | 24.96562 | 29694 ft | 339 kts | 313° |
| 2026-05-08 15:44 | 36.72345 | 24.94747 | 29838 ft | 354 kts | 322° |
| 2026-05-08 15:44 | 36.74466 | 24.93108 | 29981 ft | 363 kts | 322° |
| 2026-05-08 15:45 | 36.76638 | 24.91435 | 30120 ft | 371 kts | 322° |
| 2026-05-08 15:45 | 36.78859 | 24.89729 | 30245 ft | 379 kts | 322° |
| 2026-05-08 15:45 | 36.81123 | 24.87988 | 30365 ft | 386 kts | 322° |
| 2026-05-08 15:45 | 36.83427 | 24.86213 | 30484 ft | 392 kts | 322° |
| 2026-05-08 15:46 | 36.85766 | 24.84405 | 30607 ft | 398 kts | 322° |
| 2026-05-08 15:46 | 36.88139 | 24.82566 | 30745 ft | 404 kts | 322° |
| 2026-05-08 15:46 | 36.90542 | 24.80702 | 30865 ft | 409 kts | 322° |
| 2026-05-08 15:46 | 36.92945 | 24.78837 | 30986 ft | 414 kts | 322° |
| 2026-05-08 15:47 | 36.95410 | 24.76930 | 31112 ft | 419 kts | 322° |
| 2026-05-08 15:47 | 36.97900 | 24.75005 | 31235 ft | 423 kts | 322° |
| 2026-05-08 15:47 | 37.00409 | 24.73063 | 31366 ft | 426 kts | 322° |
| 2026-05-08 15:47 | 37.02934 | 24.71109 | 31565 ft | 427 kts | 322° |
| 2026-05-08 15:48 | 37.07987 | 24.67208 | 32094 ft | 426 kts | 322° |
| 2026-05-08 15:48 | 37.10509 | 24.65256 | 32367 ft | 425 kts | 322° |
| 2026-05-08 15:48 | 37.13018 | 24.63307 | 32643 ft | 424 kts | 322° |
| 2026-05-08 15:49 | 37.15530 | 24.61354 | 32941 ft | 423 kts | 322° |
| 2026-05-08 15:49 | 37.18028 | 24.59408 | 33229 ft | 422 kts | 322° |
| 2026-05-08 15:49 | 37.20520 | 24.57465 | 33495 ft | 422 kts | 321° |
| 2026-05-08 15:49 | 37.23011 | 24.55523 | 33756 ft | 421 kts | 321° |
| 2026-05-08 15:50 | 37.25498 | 24.53584 | 34026 ft | 421 kts | 321° |
| 2026-05-08 15:50 | 37.27979 | 24.51643 | 34262 ft | 420 kts | 321° |
| 2026-05-08 15:50 | 37.30453 | 24.49703 | 34496 ft | 419 kts | 321° |
| 2026-05-08 15:50 | 37.32928 | 24.47762 | 34732 ft | 418 kts | 321° |
| 2026-05-08 15:51 | 37.35395 | 24.45830 | 34972 ft | 418 kts | 321° |
| 2026-05-08 15:51 | 37.37861 | 24.43904 | 35193 ft | 417 kts | 321° |
| 2026-05-08 15:51 | 37.40323 | 24.41981 | 35419 ft | 416 kts | 321° |
| 2026-05-08 15:51 | 37.42776 | 24.40059 | 35673 ft | 415 kts | 321° |
| 2026-05-08 15:52 | 37.45216 | 24.38145 | 35916 ft | 413 kts | 321° |
| 2026-05-08 15:52 | 37.47625 | 24.36251 | 36040 ft | 414 kts | 321° |
| 2026-05-08 15:52 | 37.50065 | 24.34329 | 36069 ft | 414 kts | 321° |
| 2026-05-08 15:53 | 37.54469 | 24.29873 | 36067 ft | 400 kts | 305° |
| 2026-05-08 15:53 | 37.57351 | 24.24017 | 36063 ft | 390 kts | 288° |
| 2026-05-08 15:54 | 37.59158 | 24.17579 | 36060 ft | 389 kts | 286° |
| 2026-05-08 15:54 | 37.60950 | 24.11141 | 36057 ft | 389 kts | 287° |
| 2026-05-08 15:55 | 37.62749 | 24.04696 | 36070 ft | 389 kts | 287° |
| 2026-05-08 15:55 | 37.65444 | 23.95019 | 36062 ft | 390 kts | 287° |
| 2026-05-08 15:56 | 37.67236 | 23.88560 | 36061 ft | 390 kts | 287° |
| 2026-05-08 15:56 | 37.69014 | 23.82144 | 36059 ft | 390 kts | 286° |
| 2026-05-08 15:57 | 37.70795 | 23.75674 | 36058 ft | 390 kts | 286° |
| 2026-05-08 15:57 | 37.72577 | 23.69205 | 36059 ft | 390 kts | 287° |
| 2026-05-08 15:58 | 37.74353 | 23.62730 | 36059 ft | 390 kts | 287° |
| 2026-05-08 15:58 | 37.76128 | 23.56260 | 36053 ft | 390 kts | 287° |
| 2026-05-08 15:59 | 37.77900 | 23.49782 | 36052 ft | 390 kts | 286° |
| 2026-05-08 15:59 | 37.79660 | 23.43300 | 36049 ft | 390 kts | 286° |
| 2026-05-08 16:00 | 37.81415 | 23.36821 | 36050 ft | 389 kts | 286° |
| 2026-05-08 16:00 | 37.83168 | 23.30351 | 36049 ft | 389 kts | 287° |
| 2026-05-08 16:01 | 37.84912 | 23.23914 | 36049 ft | 389 kts | 286° |
| 2026-05-08 16:01 | 37.86651 | 23.17442 | 36042 ft | 389 kts | 286° |
| 2026-05-08 16:02 | 37.88387 | 23.10961 | 36041 ft | 389 kts | 286° |
| 2026-05-08 16:02 | 37.90129 | 23.04479 | 36023 ft | 389 kts | 287° |
| 2026-05-08 16:03 | 37.91876 | 22.97988 | 36023 ft | 390 kts | 289° |
| 2026-05-08 16:03 | 37.94694 | 22.92084 | 36019 ft | 399 kts | 308° |
| 2026-05-08 16:04 | 37.98912 | 22.87413 | 36054 ft | 404 kts | 314° |
| 2026-05-08 16:04 | 38.03243 | 22.82879 | 36045 ft | 403 kts | 314° |
| 2026-05-08 16:05 | 38.07555 | 22.78337 | 36041 ft | 403 kts | 314° |
| 2026-05-08 16:05 | 38.11855 | 22.73796 | 36048 ft | 402 kts | 314° |
| 2026-05-08 16:06 | 38.16150 | 22.69256 | 36050 ft | 401 kts | 314° |
| 2026-05-08 16:06 | 38.20438 | 22.64723 | 36046 ft | 401 kts | 314° |
| 2026-05-08 16:07 | 38.24690 | 22.60216 | 36035 ft | 400 kts | 314° |
| 2026-05-08 16:07 | 38.28952 | 22.55683 | 36034 ft | 399 kts | 314° |
| 2026-05-08 16:08 | 38.33213 | 22.51144 | 36035 ft | 399 kts | 314° |
| 2026-05-08 16:08 | 38.37476 | 22.46599 | 36029 ft | 399 kts | 314° |
| 2026-05-08 16:09 | 38.41040 | 22.42789 | 36050 ft | 399 kts | 313° |
| 2026-05-08 16:09 | 38.45984 | 22.37501 | 36046 ft | 399 kts | 313° |
| 2026-05-08 16:10 | 38.50231 | 22.32950 | 36045 ft | 399 kts | 314° |
| 2026-05-08 16:10 | 38.54480 | 22.28393 | 36050 ft | 399 kts | 313° |
| 2026-05-08 16:11 | 38.58727 | 22.23832 | 36046 ft | 398 kts | 314° |
| 2026-05-08 16:11 | 38.62973 | 22.19269 | 36057 ft | 399 kts | 313° |
| 2026-05-08 16:12 | 38.67210 | 22.14709 | 36053 ft | 397 kts | 314° |
| 2026-05-08 16:12 | 38.71436 | 22.10148 | 36061 ft | 396 kts | 313° |
| 2026-05-08 16:13 | 38.75614 | 22.05624 | 36058 ft | 396 kts | 313° |
| 2026-05-08 16:13 | 38.79820 | 22.01059 | 36077 ft | 396 kts | 313° |
| 2026-05-08 16:14 | 38.84032 | 21.96486 | 36067 ft | 396 kts | 313° |
| 2026-05-08 16:14 | 38.88241 | 21.91917 | 36068 ft | 397 kts | 313° |
| 2026-05-08 16:15 | 38.92457 | 21.87334 | 36067 ft | 397 kts | 313° |
| 2026-05-08 16:15 | 38.96668 | 21.82745 | 36064 ft | 397 kts | 313° |
| 2026-05-08 16:16 | 39.00876 | 21.78151 | 36090 ft | 397 kts | 313° |
| 2026-05-08 16:16 | 39.05084 | 21.73565 | 36100 ft | 397 kts | 313° |
| 2026-05-08 16:17 | 39.08585 | 21.69733 | 36061 ft | 399 kts | 313° |
| 2026-05-08 16:17 | 39.13500 | 21.64334 | 36039 ft | 400 kts | 313° |
| 2026-05-08 16:18 | 39.17737 | 21.59679 | 36038 ft | 401 kts | 313° |
| 2026-05-08 16:18 | 39.21980 | 21.55007 | 36039 ft | 401 kts | 313° |
| 2026-05-08 16:19 | 39.26228 | 21.50325 | 36053 ft | 402 kts | 313° |
| 2026-05-08 16:19 | 39.30482 | 21.45641 | 36039 ft | 402 kts | 313° |
| 2026-05-08 16:20 | 39.34736 | 21.40929 | 36062 ft | 404 kts | 314° |
| 2026-05-08 16:20 | 39.39006 | 21.36192 | 36048 ft | 405 kts | 314° |
| 2026-05-08 16:21 | 39.43285 | 21.31439 | 36038 ft | 406 kts | 314° |
| 2026-05-08 16:21 | 39.47574 | 21.26667 | 36041 ft | 407 kts | 314° |
| 2026-05-08 16:22 | 39.51148 | 21.22687 | 36041 ft | 407 kts | 314° |
| 2026-05-08 16:22 | 39.55445 | 21.17904 | 36047 ft | 408 kts | 314° |
| 2026-05-08 16:23 | 39.60447 | 21.12325 | 36077 ft | 408 kts | 315° |
| 2026-05-08 16:23 | 39.64751 | 21.07495 | 36043 ft | 410 kts | 315° |
| 2026-05-08 16:24 | 39.68376 | 21.03426 | 36041 ft | 412 kts | 315° |
| 2026-05-08 16:24 | 39.72713 | 20.98551 | 36044 ft | 413 kts | 315° |
| 2026-05-08 16:25 | 39.77058 | 20.93666 | 36045 ft | 413 kts | 314° |
| 2026-05-08 16:25 | 39.81408 | 20.88770 | 36049 ft | 414 kts | 314° |
| 2026-05-08 16:26 | 39.85752 | 20.83861 | 36050 ft | 414 kts | 314° |
| 2026-05-08 16:26 | 39.90080 | 20.78969 | 36063 ft | 415 kts | 315° |
| 2026-05-08 16:27 | 39.94477 | 20.73995 | 36043 ft | 417 kts | 315° |
| 2026-05-08 16:27 | 39.98823 | 20.69064 | 36030 ft | 417 kts | 315° |
| 2026-05-08 16:28 | 40.03199 | 20.64074 | 36026 ft | 418 kts | 315° |
| 2026-05-08 16:28 | 40.07771 | 20.59370 | 36018 ft | 423 kts | 325° |
| 2026-05-08 16:29 | 40.13172 | 20.56141 | 36028 ft | 428 kts | 332° |
| 2026-05-08 16:29 | 40.18654 | 20.53054 | 36011 ft | 429 kts | 332° |
| 2026-05-08 16:30 | 40.24141 | 20.49942 | 36010 ft | 430 kts | 332° |
| 2026-05-08 16:30 | 40.29640 | 20.46816 | 36011 ft | 431 kts | 332° |
| 2026-05-08 16:31 | 40.35142 | 20.43689 | 36017 ft | 431 kts | 332° |
| 2026-05-08 16:31 | 40.40658 | 20.40545 | 36000 ft | 433 kts | 332° |
| 2026-05-08 16:32 | 40.46197 | 20.37388 | 35994 ft | 435 kts | 332° |
| 2026-05-08 16:32 | 40.51747 | 20.34213 | 35996 ft | 436 kts | 332° |
| 2026-05-08 16:33 | 40.57308 | 20.31026 | 35996 ft | 436 kts | 332° |
| 2026-05-08 16:33 | 40.62880 | 20.27833 | 36000 ft | 438 kts | 333° |
| 2026-05-08 16:34 | 40.68439 | 20.24651 | 35990 ft | 439 kts | 333° |
| 2026-05-08 16:34 | 40.74043 | 20.21428 | 35998 ft | 440 kts | 333° |
| 2026-05-08 16:35 | 40.79649 | 20.18178 | 35989 ft | 440 kts | 333° |
| 2026-05-08 16:35 | 40.85265 | 20.14921 | 35991 ft | 441 kts | 333° |
| 2026-05-08 16:36 | 40.90892 | 20.11660 | 35999 ft | 442 kts | 333° |
| 2026-05-08 16:36 | 40.96530 | 20.08392 | 36000 ft | 443 kts | 333° |
| 2026-05-08 16:37 | 41.02184 | 20.05123 | 36000 ft | 443 kts | 333° |
| 2026-05-08 16:37 | 41.07843 | 20.01843 | 36002 ft | 444 kts | 333° |
| 2026-05-08 16:38 | 41.13456 | 19.98571 | 36006 ft | 444 kts | 333° |
| 2026-05-08 16:38 | 41.19105 | 19.95263 | 36014 ft | 444 kts | 333° |
| 2026-05-08 16:39 | 41.24756 | 19.91954 | 36005 ft | 444 kts | 333° |
| 2026-05-08 16:39 | 41.30409 | 19.88638 | 36017 ft | 443 kts | 333° |
| 2026-05-08 16:40 | 41.36047 | 19.85329 | 36020 ft | 442 kts | 333° |
| 2026-05-08 16:40 | 41.41676 | 19.82015 | 36023 ft | 441 kts | 333° |
| 2026-05-08 16:41 | 41.47289 | 19.78701 | 36024 ft | 441 kts | 333° |
| 2026-05-08 16:42 | 41.55695 | 19.73738 | 36019 ft | 441 kts | 333° |
| 2026-05-08 16:42 | 41.61306 | 19.70412 | 36015 ft | 441 kts | 333° |
| 2026-05-08 16:43 | 41.66883 | 19.67093 | 36012 ft | 441 kts | 333° |
| 2026-05-08 16:43 | 41.72487 | 19.63745 | 36014 ft | 441 kts | 333° |
| 2026-05-08 16:44 | 41.78097 | 19.60400 | 36003 ft | 442 kts | 333° |
| 2026-05-08 16:44 | 41.83718 | 19.57052 | 35996 ft | 442 kts | 333° |
| 2026-05-08 16:45 | 41.89337 | 19.53689 | 35994 ft | 443 kts | 333° |
| 2026-05-08 16:45 | 41.94959 | 19.50318 | 36003 ft | 443 kts | 333° |
| 2026-05-08 16:46 | 42.00588 | 19.46940 | 35995 ft | 443 kts | 333° |
| 2026-05-08 16:46 | 42.06216 | 19.43556 | 35996 ft | 443 kts | 333° |
| 2026-05-08 16:47 | 42.11841 | 19.40157 | 35993 ft | 443 kts | 333° |
| 2026-05-08 16:47 | 42.17456 | 19.36752 | 35995 ft | 443 kts | 333° |
| 2026-05-08 16:48 | 42.22954 | 19.33070 | 35978 ft | 440 kts | 324° |
| 2026-05-08 16:48 | 42.27683 | 19.27900 | 35972 ft | 437 kts | 317° |
| 2026-05-08 16:49 | 42.32292 | 19.22533 | 35971 ft | 438 kts | 317° |
| 2026-05-08 16:49 | 42.36902 | 19.17157 | 35970 ft | 438 kts | 317° |
| 2026-05-08 16:50 | 42.41516 | 19.11783 | 35990 ft | 438 kts | 316° |
| 2026-05-08 16:50 | 42.46103 | 19.06434 | 35984 ft | 438 kts | 316° |
| 2026-05-08 16:51 | 42.50727 | 19.01032 | 35983 ft | 439 kts | 316° |
| 2026-05-08 16:51 | 42.55339 | 18.95609 | 35993 ft | 439 kts | 316° |
| 2026-05-08 16:52 | 42.59943 | 18.90179 | 36000 ft | 439 kts | 316° |
| 2026-05-08 16:52 | 42.64555 | 18.84742 | 36004 ft | 439 kts | 316° |
| 2026-05-08 16:53 | 42.71478 | 18.76580 | 36014 ft | 439 kts | 316° |
| 2026-05-08 16:53 | 42.76088 | 18.71130 | 36013 ft | 439 kts | 316° |
| 2026-05-08 16:54 | 42.80689 | 18.65658 | 36017 ft | 439 kts | 316° |
| 2026-05-08 16:54 | 42.85294 | 18.60177 | 36017 ft | 439 kts | 316° |
| 2026-05-08 16:55 | 42.89891 | 18.54697 | 36030 ft | 439 kts | 316° |
| 2026-05-08 16:55 | 42.94485 | 18.49215 | 36023 ft | 439 kts | 316° |
| 2026-05-08 16:56 | 42.99079 | 18.43731 | 36016 ft | 439 kts | 316° |
| 2026-05-08 16:56 | 43.03642 | 18.38266 | 36012 ft | 439 kts | 316° |
| 2026-05-08 16:57 | 43.08259 | 18.32710 | 36006 ft | 440 kts | 316° |
| 2026-05-08 16:57 | 43.12825 | 18.27210 | 36007 ft | 440 kts | 316° |
| 2026-05-08 16:58 | 43.17418 | 18.21669 | 36011 ft | 440 kts | 315° |
| 2026-05-08 16:58 | 43.22018 | 18.16112 | 36004 ft | 440 kts | 315° |
| 2026-05-08 16:59 | 43.26611 | 18.10556 | 36005 ft | 441 kts | 315° |
| 2026-05-08 16:59 | 43.31208 | 18.04983 | 36006 ft | 441 kts | 315° |
| 2026-05-08 17:00 | 43.35796 | 17.99394 | 36002 ft | 441 kts | 315° |
| 2026-05-08 17:00 | 43.40380 | 17.93798 | 36004 ft | 441 kts | 315° |
| 2026-05-08 17:01 | 43.44962 | 17.88196 | 36006 ft | 441 kts | 315° |
| 2026-05-08 17:01 | 43.49549 | 17.82591 | 36007 ft | 441 kts | 315° |
| 2026-05-08 17:02 | 43.54134 | 17.76966 | 36003 ft | 440 kts | 315° |
| 2026-05-08 17:02 | 43.58700 | 17.71344 | 36017 ft | 440 kts | 315° |
| 2026-05-08 17:03 | 43.63239 | 17.65753 | 36015 ft | 440 kts | 315° |
| 2026-05-08 17:03 | 43.67812 | 17.60108 | 36023 ft | 441 kts | 315° |
| 2026-05-08 17:04 | 43.72377 | 17.54453 | 36022 ft | 441 kts | 315° |
| 2026-05-08 17:04 | 43.76948 | 17.48781 | 36040 ft | 441 kts | 315° |
| 2026-05-08 17:05 | 43.81514 | 17.43116 | 36047 ft | 441 kts | 315° |
| 2026-05-08 17:05 | 43.86073 | 17.37445 | 36047 ft | 440 kts | 315° |
| 2026-05-08 17:06 | 43.90624 | 17.31766 | 36046 ft | 440 kts | 315° |
| 2026-05-08 17:06 | 43.95174 | 17.26084 | 36036 ft | 440 kts | 315° |
| 2026-05-08 17:07 | 43.99718 | 17.20386 | 36054 ft | 440 kts | 314° |
| 2026-05-08 17:07 | 44.04261 | 17.14675 | 36052 ft | 440 kts | 314° |
| 2026-05-08 17:08 | 44.08799 | 17.08957 | 36054 ft | 440 kts | 314° |
| 2026-05-08 17:08 | 44.13343 | 17.03237 | 36052 ft | 441 kts | 314° |
| 2026-05-08 17:09 | 44.17883 | 16.97494 | 36050 ft | 441 kts | 314° |
| 2026-05-08 17:09 | 44.22384 | 16.91779 | 36059 ft | 441 kts | 314° |
| 2026-05-08 17:10 | 44.26913 | 16.86024 | 36067 ft | 440 kts | 314° |
| 2026-05-08 17:10 | 44.31430 | 16.80254 | 36065 ft | 440 kts | 313° |
| 2026-05-08 17:11 | 44.35843 | 16.74316 | 36068 ft | 440 kts | 311° |
| 2026-05-08 17:11 | 44.40174 | 16.68286 | 36076 ft | 440 kts | 311° |
| 2026-05-08 17:12 | 44.44523 | 16.62268 | 36072 ft | 440 kts | 312° |
| 2026-05-08 17:12 | 44.48890 | 16.56284 | 36067 ft | 439 kts | 312° |
| 2026-05-08 17:13 | 44.52520 | 16.51301 | 36067 ft | 439 kts | 312° |
| 2026-05-08 17:13 | 44.56877 | 16.45304 | 36069 ft | 439 kts | 312° |
| 2026-05-08 17:14 | 44.61229 | 16.39286 | 36074 ft | 439 kts | 311° |
| 2026-05-08 17:14 | 44.65583 | 16.33256 | 36061 ft | 440 kts | 311° |
| 2026-05-08 17:15 | 44.69939 | 16.27222 | 36056 ft | 440 kts | 311° |
| 2026-05-08 17:15 | 44.74290 | 16.21182 | 36053 ft | 440 kts | 311° |
| 2026-05-08 17:16 | 44.78633 | 16.15123 | 36040 ft | 440 kts | 311° |
| 2026-05-08 17:16 | 44.82978 | 16.09056 | 36060 ft | 440 kts | 311° |
| 2026-05-08 17:17 | 44.87314 | 16.02986 | 36057 ft | 440 kts | 311° |
| 2026-05-08 17:17 | 44.91652 | 15.96896 | 36053 ft | 440 kts | 311° |
| 2026-05-08 17:18 | 44.95989 | 15.90798 | 36045 ft | 440 kts | 311° |
| 2026-05-08 17:18 | 45.00328 | 15.84685 | 36056 ft | 440 kts | 311° |
| 2026-05-08 17:19 | 45.04651 | 15.78570 | 36061 ft | 439 kts | 311° |
| 2026-05-08 17:19 | 45.08937 | 15.72494 | 36059 ft | 439 kts | 311° |
| 2026-05-08 17:20 | 45.13251 | 15.66374 | 36052 ft | 439 kts | 311° |
| 2026-05-08 17:20 | 45.17571 | 15.60250 | 36045 ft | 439 kts | 311° |
| 2026-05-08 17:21 | 45.21880 | 15.54115 | 36057 ft | 439 kts | 311° |
| 2026-05-08 17:21 | 45.26177 | 15.47965 | 36052 ft | 439 kts | 310° |
| 2026-05-08 17:22 | 45.30470 | 15.41799 | 36048 ft | 439 kts | 310° |
| 2026-05-08 17:22 | 45.34758 | 15.35637 | 36050 ft | 439 kts | 310° |
| 2026-05-08 17:23 | 45.39052 | 15.29460 | 36047 ft | 439 kts | 310° |
| 2026-05-08 17:23 | 45.43341 | 15.23276 | 36045 ft | 439 kts | 310° |
| 2026-05-08 17:24 | 45.47627 | 15.17098 | 36041 ft | 438 kts | 310° |
| 2026-05-08 17:24 | 45.51907 | 15.10902 | 36040 ft | 438 kts | 310° |
| 2026-05-08 17:25 | 45.56178 | 15.04698 | 36040 ft | 438 kts | 310° |
| 2026-05-08 17:25 | 45.60444 | 14.98492 | 36062 ft | 438 kts | 310° |
| 2026-05-08 17:26 | 45.64681 | 14.92311 | 36045 ft | 438 kts | 310° |
| 2026-05-08 17:26 | 45.68944 | 14.86072 | 36038 ft | 439 kts | 310° |
| 2026-05-08 17:27 | 45.73212 | 14.79809 | 36036 ft | 439 kts | 310° |
| 2026-05-08 17:27 | 45.77481 | 14.73538 | 36030 ft | 439 kts | 310° |
| 2026-05-08 17:28 | 45.81745 | 14.67262 | 36037 ft | 440 kts | 310° |
| 2026-05-08 17:28 | 45.86007 | 14.60970 | 36027 ft | 440 kts | 310° |
| 2026-05-08 17:29 | 45.90269 | 14.54666 | 36023 ft | 440 kts | 310° |
| 2026-05-08 17:29 | 45.94539 | 14.48338 | 36019 ft | 441 kts | 310° |
| 2026-05-08 17:30 | 45.98807 | 14.41997 | 36021 ft | 441 kts | 310° |
| 2026-05-08 17:30 | 46.03068 | 14.35647 | 36033 ft | 442 kts | 309° |
| 2026-05-08 17:31 | 46.07332 | 14.29280 | 36047 ft | 442 kts | 309° |
| 2026-05-08 17:31 | 46.11593 | 14.22894 | 36045 ft | 441 kts | 309° |
| 2026-05-08 17:32 | 46.15846 | 14.16512 | 36043 ft | 441 kts | 309° |
| 2026-05-08 17:32 | 46.20099 | 14.10118 | 36043 ft | 441 kts | 309° |
| 2026-05-08 17:33 | 46.24346 | 14.03719 | 36063 ft | 441 kts | 309° |
| 2026-05-08 17:33 | 46.28556 | 13.97350 | 36067 ft | 441 kts | 309° |
| 2026-05-08 17:34 | 46.32793 | 13.90943 | 36060 ft | 441 kts | 309° |
| 2026-05-08 17:34 | 46.37020 | 13.84532 | 36066 ft | 440 kts | 309° |
| 2026-05-08 17:35 | 46.41238 | 13.78108 | 36067 ft | 440 kts | 309° |
| 2026-05-08 17:35 | 46.45446 | 13.71674 | 36077 ft | 440 kts | 309° |
| 2026-05-08 17:36 | 46.49659 | 13.65247 | 36062 ft | 440 kts | 309° |
| 2026-05-08 17:36 | 46.53872 | 13.58798 | 36061 ft | 440 kts | 309° |
| 2026-05-08 17:37 | 46.58071 | 13.52344 | 36061 ft | 440 kts | 309° |
| 2026-05-08 17:37 | 46.62278 | 13.45872 | 36088 ft | 440 kts | 309° |
| 2026-05-08 17:38 | 46.66480 | 13.39387 | 36086 ft | 440 kts | 309° |
| 2026-05-08 17:38 | 46.70675 | 13.32888 | 36080 ft | 440 kts | 309° |
| 2026-05-08 17:39 | 46.74877 | 13.26388 | 36083 ft | 440 kts | 309° |
| 2026-05-08 17:39 | 46.79070 | 13.19869 | 36084 ft | 440 kts | 308° |
| 2026-05-08 17:40 | 46.83215 | 13.13375 | 36099 ft | 440 kts | 309° |
| 2026-05-08 17:40 | 46.87413 | 13.06790 | 36091 ft | 441 kts | 309° |
| 2026-05-08 17:41 | 46.91603 | 13.00236 | 36076 ft | 441 kts | 309° |
| 2026-05-08 17:41 | 46.95792 | 12.93665 | 36074 ft | 441 kts | 309° |
| 2026-05-08 17:42 | 46.99946 | 12.87122 | 36068 ft | 442 kts | 309° |
| 2026-05-08 17:42 | 47.04125 | 12.80514 | 36065 ft | 441 kts | 309° |
| 2026-05-08 17:43 | 47.08300 | 12.73907 | 36068 ft | 443 kts | 309° |
| 2026-05-08 17:43 | 47.12486 | 12.67285 | 36078 ft | 443 kts | 308° |
| 2026-05-08 17:44 | 47.16668 | 12.60636 | 36065 ft | 443 kts | 308° |
| 2026-05-08 17:44 | 47.20848 | 12.53974 | 36065 ft | 443 kts | 308° |
| 2026-05-08 17:45 | 47.25021 | 12.47315 | 36074 ft | 443 kts | 308° |
| 2026-05-08 17:45 | 47.29186 | 12.40630 | 36073 ft | 442 kts | 308° |
| 2026-05-08 17:46 | 47.33346 | 12.33947 | 36067 ft | 442 kts | 308° |
| 2026-05-08 17:46 | 47.37501 | 12.27261 | 36076 ft | 442 kts | 308° |
| 2026-05-08 17:47 | 47.41652 | 12.20568 | 36067 ft | 442 kts | 308° |
| 2026-05-08 17:47 | 47.45098 | 12.15002 | 36064 ft | 441 kts | 308° |
| 2026-05-08 17:48 | 47.49899 | 12.07205 | 36050 ft | 441 kts | 308° |
| 2026-05-08 17:48 | 47.53326 | 11.99836 | 36047 ft | 431 kts | 290° |
| 2026-05-08 17:49 | 47.55021 | 11.91464 | 36038 ft | 423 kts | 277° |
| 2026-05-08 17:49 | 47.56141 | 11.82911 | 36039 ft | 424 kts | 277° |
| 2026-05-08 17:50 | 47.57275 | 11.74346 | 36048 ft | 424 kts | 278° |
| 2026-05-08 17:50 | 47.58394 | 11.65787 | 36041 ft | 424 kts | 278° |
| 2026-05-08 17:51 | 47.59502 | 11.57225 | 36037 ft | 423 kts | 278° |
| 2026-05-08 17:51 | 47.60604 | 11.48661 | 36042 ft | 423 kts | 277° |
| 2026-05-08 17:52 | 47.61694 | 11.40101 | 36040 ft | 423 kts | 277° |
| 2026-05-08 17:53 | 47.63325 | 11.27263 | 36046 ft | 423 kts | 278° |
| 2026-05-08 17:53 | 47.64408 | 11.18687 | 36039 ft | 423 kts | 278° |
| 2026-05-08 17:54 | 47.65470 | 11.10115 | 36045 ft | 423 kts | 278° |
| 2026-05-08 17:54 | 47.66530 | 11.01536 | 36042 ft | 423 kts | 278° |
| 2026-05-08 17:55 | 47.67581 | 10.93019 | 36063 ft | 423 kts | 279° |
| 2026-05-08 17:55 | 47.68635 | 10.84437 | 36059 ft | 422 kts | 279° |
| 2026-05-08 17:56 | 47.69682 | 10.75865 | 36064 ft | 422 kts | 279° |
| 2026-05-08 17:56 | 47.70727 | 10.67287 | 36061 ft | 422 kts | 279° |
| 2026-05-08 17:57 | 47.71763 | 10.58707 | 36053 ft | 422 kts | 278° |
| 2026-05-08 17:57 | 47.72791 | 10.50121 | 36059 ft | 422 kts | 279° |
| 2026-05-08 17:58 | 47.73802 | 10.41545 | 36046 ft | 422 kts | 279° |
| 2026-05-08 17:58 | 47.74539 | 10.32919 | 36042 ft | 421 kts | 269° |
| 2026-05-08 17:58 | 47.74469 | 10.28600 | 35686 ft | 414 kts | 268° |
| 2026-05-08 17:59 | 47.74374 | 10.24310 | 34178 ft | 420 kts | 268° |
| 2026-05-08 17:59 | 47.74264 | 10.19935 | 32318 ft | 427 kts | 267° |
| 2026-05-08 17:59 | 47.74147 | 10.15498 | 30531 ft | 432 kts | 266° |
| 2026-05-08 17:59 | 47.74031 | 10.11050 | 28967 ft | 429 kts | 266° |
| 2026-05-08 18:00 | 47.73959 | 10.08137 | 28006 ft | 425 kts | 266° |
| 2026-05-08 18:00 | 47.73753 | 9.99662 | 26548 ft | 389 kts | 266° |
| 2026-05-08 18:00 | 47.73659 | 9.95726 | 25938 ft | 374 kts | 266° |
| 2026-05-08 18:01 | 47.73536 | 9.90714 | 25190 ft | 362 kts | 267° |
| 2026-05-08 18:01 | 47.73442 | 9.86980 | 24645 ft | 361 kts | 267° |
| 2026-05-08 18:01 | 47.73379 | 9.84464 | 24280 ft | 360 kts | 267° |
| 2026-05-08 18:01 | 47.73283 | 9.80756 | 23758 ft | 360 kts | 267° |
| 2026-05-08 18:02 | 47.73184 | 9.77032 | 23183 ft | 360 kts | 267° |
| 2026-05-08 18:02 | 47.73082 | 9.73343 | 22685 ft | 356 kts | 267° |
| 2026-05-08 18:02 | 47.72981 | 9.69733 | 22522 ft | 354 kts | 266° |
| 2026-05-08 18:02 | 47.72880 | 9.66055 | 21812 ft | 359 kts | 266° |
| 2026-05-08 18:03 | 47.72779 | 9.62361 | 21350 ft | 356 kts | 266° |
| 2026-05-08 18:03 | 47.72678 | 9.58717 | 20912 ft | 352 kts | 266° |
| 2026-05-08 18:03 | 47.72578 | 9.55098 | 20468 ft | 349 kts | 266° |
| 2026-05-08 18:03 | 47.72476 | 9.51516 | 20017 ft | 346 kts | 266° |
| 2026-05-08 18:04 | 47.72372 | 9.47968 | 19570 ft | 344 kts | 266° |
| 2026-05-08 18:04 | 47.72268 | 9.44427 | 19107 ft | 342 kts | 266° |
| 2026-05-08 18:04 | 47.72163 | 9.40904 | 18648 ft | 341 kts | 266° |
| 2026-05-08 18:04 | 47.72059 | 9.37393 | 18175 ft | 340 kts | 266° |
| 2026-05-08 18:05 | 47.71955 | 9.33885 | 17669 ft | 339 kts | 266° |
| 2026-05-08 18:05 | 47.71852 | 9.30402 | 17192 ft | 337 kts | 266° |
| 2026-05-08 18:05 | 47.71749 | 9.26931 | 16733 ft | 335 kts | 266° |
| 2026-05-08 18:05 | 47.71644 | 9.23476 | 16250 ft | 335 kts | 266° |
| 2026-05-08 18:06 | 47.71539 | 9.20025 | 15777 ft | 333 kts | 266° |
| 2026-05-08 18:06 | 47.71435 | 9.16590 | 15311 ft | 332 kts | 266° |
| 2026-05-08 18:06 | 47.71331 | 9.13172 | 14846 ft | 331 kts | 266° |
| 2026-05-08 18:06 | 47.71224 | 9.09756 | 14383 ft | 331 kts | 266° |
| 2026-05-08 18:07 | 47.71114 | 9.06346 | 13908 ft | 330 kts | 266° |
| 2026-05-08 18:07 | 47.71003 | 9.02945 | 13406 ft | 329 kts | 266° |
| 2026-05-08 18:07 | 47.70894 | 8.99556 | 12923 ft | 327 kts | 266° |
| 2026-05-08 18:07 | 47.70786 | 8.96202 | 12451 ft | 324 kts | 266° |
| 2026-05-08 18:08 | 47.70676 | 8.92871 | 11968 ft | 322 kts | 266° |
| 2026-05-08 18:08 | 47.70565 | 8.89561 | 11493 ft | 320 kts | 266° |
| 2026-05-08 18:08 | 47.70453 | 8.86267 | 10999 ft | 319 kts | 266° |
| 2026-05-08 18:08 | 47.70343 | 8.82991 | 10555 ft | 316 kts | 266° |
| 2026-05-08 18:09 | 47.70235 | 8.79803 | 10422 ft | 303 kts | 266° |
| 2026-05-08 18:09 | 47.70132 | 8.76741 | 10298 ft | 291 kts | 266° |
| 2026-05-08 18:09 | 47.70032 | 8.73790 | 10113 ft | 283 kts | 266° |
| 2026-05-08 18:09 | 47.69932 | 8.70895 | 9921 ft | 278 kts | 266° |
| 2026-05-08 18:10 | 47.69831 | 8.68031 | 9796 ft | 278 kts | 266° |
| 2026-05-08 18:10 | 47.69728 | 8.65139 | 9265 ft | 284 kts | 266° |
| 2026-05-08 18:10 | 47.69624 | 8.62240 | 8923 ft | 280 kts | 266° |
| 2026-05-08 18:10 | 47.69520 | 8.59374 | 8278 ft | 277 kts | 266° |
| 2026-05-08 18:11 | 47.69414 | 8.56548 | 7533 ft | 277 kts | 266° |
| 2026-05-08 18:11 | 47.69305 | 8.53691 | 6788 ft | 278 kts | 266° |
| 2026-05-08 18:11 | 47.69198 | 8.50830 | 6056 ft | 278 kts | 266° |
| 2026-05-08 18:11 | 47.69082 | 8.47981 | 5362 ft | 275 kts | 263° |
| 2026-05-08 18:12 | 47.68572 | 8.45342 | 5052 ft | 257 kts | 243° |
| 2026-05-08 18:12 | 47.67624 | 8.43209 | 4934 ft | 242 kts | 226° |
| 2026-05-08 18:12 | 47.66363 | 8.41641 | 4817 ft | 232 kts | 210° |
| 2026-05-08 18:12 | 47.64979 | 8.40518 | 4673 ft | 222 kts | 208° |
| 2026-05-08 18:13 | 47.63645 | 8.39448 | 4549 ft | 214 kts | 208° |
| 2026-05-08 18:13 | 47.62359 | 8.38421 | 4415 ft | 206 kts | 205° |
| 2026-05-08 18:13 | 47.60997 | 8.37906 | 4289 ft | 202 kts | 179° |
| 2026-05-08 18:13 | 47.59644 | 8.38290 | 4193 ft | 194 kts | 154° |
| 2026-05-08 18:14 | 47.58596 | 8.39359 | 4087 ft | 177 kts | 136° |
| 2026-05-08 18:14 | 47.57713 | 8.40576 | 3885 ft | 170 kts | 135° |
| 2026-05-08 18:14 | 47.56866 | 8.41742 | 3688 ft | 164 kts | 135° |
| 2026-05-08 18:14 | 47.56039 | 8.42878 | 3480 ft | 161 kts | 135° |
| 2026-05-08 18:15 | 47.55237 | 8.43979 | 3284 ft | 153 kts | 135° |
| 2026-05-08 18:15 | 47.54469 | 8.45032 | 3088 ft | 149 kts | 135° |
| 2026-05-08 18:15 | 47.53720 | 8.46061 | 2916 ft | 145 kts | 135° |
| 2026-05-08 18:15 | 47.52979 | 8.47075 | 2706 ft | 144 kts | 135° |
| 2026-05-08 18:16 | 47.52245 | 8.48082 | 2515 ft | 144 kts | 135° |
| 2026-05-08 18:16 | 47.51510 | 8.49088 | 2326 ft | 143 kts | 135° |
| 2026-05-08 18:16 | 47.50783 | 8.50083 | 2141 ft | 142 kts | 135° |
| 2026-05-08 18:16 | 47.50062 | 8.51070 | 1954 ft | 140 kts | 136° |
| 2026-05-08 18:17 | 47.49351 | 8.52043 | 1763 ft | 139 kts | 135° |
| 2026-05-08 18:17 | 47.48652 | 8.53021 | 1578 ft | 138 kts | 136° |
| 2026-05-08 18:17 | 47.47950 | 8.53966 | 1410 ft | 130 kts | 137° |
| 2026-05-08 18:17 | 47.47398 | 8.54720 | 1389 ft | 83 kts | 137° |
| 2026-05-08 18:18 | 47.47094 | 8.55131 | 1388 ft | 40 kts | 138° |
| 2026-05-08 18:18 | 47.46877 | 8.55426 | 1393 ft | 42 kts | 137° |
| 2026-05-08 18:18 | 47.46654 | 8.55652 | 1399 ft | 38 kts | 160° |
| 2026-05-08 18:18 | 47.46442 | 8.55729 | 1399 ft | 25 kts | 167° |
| 2026-05-08 18:19 | 47.46304 | 8.55865 | 1405 ft | 24 kts | 139° |
| 2026-05-08 18:19 | 47.46189 | 8.55996 | 1410 ft | 18 kts | 169° |
| 2026-05-08 18:19 | 47.46064 | 8.55985 | 1407 ft | 19 kts | 186° |
| 2026-05-08 18:19 | 47.45926 | 8.55950 | 1411 ft | 21 kts | 199° |
| 2026-05-08 18:20 | 47.45839 | 8.55901 | 1411 ft | 7 kts | 200° |
| 2026-05-08 18:20 | 47.45834 | 8.55898 | 1410 ft | 0 kts | 200° |
| 2026-05-08 18:20 | 47.45777 | 8.55868 | 1409 ft | 16 kts | 199° |
| 2026-05-08 18:20 | 47.45657 | 8.55853 | 1414 ft | 19 kts | 182° |
| 2026-05-08 18:21 | 47.45529 | 8.55838 | 1408 ft | 16 kts | 186° |
| 2026-05-08 18:21 | 47.45502 | 8.55754 | 1410 ft | 6 kts | 278° |
| 2026-05-08 18:21 | 47.45491 | 8.55743 | 1409 ft | 2 kts | 165° |
| 2026-05-08 18:21 | 47.45477 | 8.55750 | 1410 ft | 2 kts | 166° |
| 2026-05-08 18:22 | 47.45462 | 8.55751 | 1407 ft | 3 kts | 178° |
| 2026-05-08 18:22 | 47.45447 | 8.55750 | 1414 ft | 2 kts | 185° |
| 2026-05-08 18:22 | 47.45432 | 8.55748 | 1413 ft | 5 kts | 186° |
| 2026-05-08 18:22 | 47.45431 | 8.55747 | 1413 ft | 0 kts | 186° |